createdAt,value
2019-01-17T00:01:05.975Z,80.10
2019-01-17T00:03:19.941Z,80.17
2019-01-17T00:05:31.335Z,79.93
2019-01-17T00:07:45.007Z,79.75
2019-01-17T00:10:04.175Z,79.82
2019-01-17T00:12:19.895Z,79.54
2019-01-17T00:15:10.495Z,79.90
2019-01-17T00:17:26.021Z,79.99
2019-01-17T00:19:36.935Z,79.76
2019-01-17T00:21:53.455Z,79.10
2019-01-17T00:24:05.815Z,79.21
2019-01-17T00:26:18.343Z,79.39
2019-01-17T00:28:30.815Z,78.91
2019-01-17T00:30:51.974Z,78.62
2019-01-17T00:33:11.215Z,78.60
2019-01-17T00:35:39.418Z,78.73
2019-01-17T00:38:07.742Z,78.84
2019-01-17T00:40:23.575Z,79.23
2019-01-17T00:42:35.615Z,79.03
2019-01-17T00:44:47.424Z,78.88
2019-01-17T00:46:56.175Z,78.35
2019-01-17T00:49:08.496Z,78.66
2019-01-17T00:51:33.823Z,78.46
2019-01-17T00:53:54.839Z,78.79
2019-01-17T00:56:10.896Z,78.69
2019-01-17T00:58:27.856Z,78.82
2019-01-17T01:00:44.662Z,79.13
2019-01-17T01:03:00.535Z,78.99
2019-01-17T01:05:16.783Z,78.74
2019-01-17T01:07:29.535Z,78.99
2019-01-17T01:09:43.016Z,79.22
2019-01-17T01:12:06.415Z,79.50
2019-01-17T01:14:18.335Z,79.59
2019-01-17T01:16:33.655Z,79.87
2019-01-17T01:18:53.063Z,80.00
2019-01-17T01:21:12.704Z,80.06
2019-01-17T01:23:29.177Z,80.33
2019-01-17T01:25:45.136Z,80.47
2019-01-17T01:28:16.970Z,80.57
2019-01-17T01:30:33.096Z,80.76
2019-01-17T01:32:51.818Z,80.58
2019-01-17T01:35:07.215Z,80.66
2019-01-17T01:37:20.725Z,80.54
2019-01-17T01:39:37.535Z,80.37
2019-01-17T01:41:57.217Z,80.56
2019-01-17T01:44:15.796Z,80.45
2019-01-17T01:46:28.575Z,80.44
2019-01-17T01:48:32.655Z,80.41
2019-01-17T01:50:44.375Z,80.36
2019-01-17T01:53:02.095Z,80.30
2019-01-17T01:54:56.255Z,80.12
2019-01-17T01:56:50.015Z,80.17
2019-01-17T01:58:44.139Z,80.16
2019-01-17T02:00:38.095Z,80.36
2019-01-17T02:02:32.335Z,79.87
2019-01-17T02:04:24.416Z,80.31
2019-01-17T02:06:18.081Z,80.39
2019-01-17T02:08:12.495Z,80.29
2019-01-17T02:10:06.590Z,80.25
2019-01-17T02:12:00.495Z,80.30
2019-01-17T02:13:54.414Z,80.39
2019-01-17T02:15:48.375Z,79.69
2019-01-17T02:17:42.096Z,80.06
2019-01-17T02:19:36.615Z,80.10
2019-01-17T02:21:30.298Z,79.67
2019-01-17T02:23:23.978Z,79.93
2019-01-17T02:25:17.974Z,79.85
2019-01-17T02:27:11.895Z,79.82
2019-01-17T02:29:05.666Z,79.85
2019-01-17T02:30:59.697Z,79.29
2019-01-17T02:32:54.777Z,79.47
2019-01-17T02:34:48.976Z,79.56
2019-01-17T02:36:42.818Z,79.48
2019-01-17T02:38:36.743Z,79.44
2019-01-17T02:40:30.375Z,79.59
2019-01-17T02:42:24.018Z,79.61
2019-01-17T02:44:17.856Z,79.35
2019-01-17T02:46:11.855Z,79.75
2019-01-17T02:48:06.375Z,79.97
2019-01-17T02:50:00.307Z,80.16
2019-01-17T02:51:54.424Z,80.19
2019-01-17T02:53:48.455Z,80.28
2019-01-17T02:55:42.015Z,80.25
2019-01-17T02:57:35.695Z,80.37
2019-01-17T02:59:29.685Z,80.32
2019-01-17T03:01:23.774Z,80.23
2019-01-17T03:03:17.495Z,80.36
2019-01-17T03:05:11.384Z,80.49
2019-01-17T03:07:05.296Z,80.29
2019-01-17T03:08:59.415Z,80.42
2019-01-17T03:10:53.023Z,80.69
2019-01-17T03:12:47.144Z,80.57
2019-01-17T03:14:40.903Z,80.47
2019-01-17T03:16:34.895Z,80.59
2019-01-17T03:18:28.781Z,80.54
2019-01-17T03:20:22.896Z,80.75
2019-01-17T03:22:17.377Z,80.96
2019-01-17T03:24:11.057Z,80.99
2019-01-17T03:26:05.018Z,81.08
2019-01-17T03:27:58.814Z,81.19
2019-01-17T03:29:52.697Z,81.25
2019-01-17T03:31:46.459Z,81.12
2019-01-17T03:33:40.537Z,81.11
2019-01-17T03:35:34.176Z,81.20
2019-01-17T03:37:27.976Z,81.12
2019-01-17T03:39:22.023Z,81.31
2019-01-17T03:41:15.796Z,81.45
2019-01-17T03:43:10.545Z,81.49
2019-01-17T03:45:06.264Z,81.40
2019-01-17T03:47:00.076Z,81.57
2019-01-17T03:48:54.496Z,81.82
2019-01-17T03:50:48.302Z,81.55
2019-01-17T03:52:42.499Z,81.47
2019-01-17T03:54:36.057Z,81.25
2019-01-17T03:56:29.979Z,82.72
2019-01-17T03:58:23.658Z,81.03
2019-01-17T04:00:20.615Z,80.76
2019-01-17T04:02:14.420Z,81.17
2019-01-17T04:04:08.255Z,80.20
2019-01-17T04:06:02.135Z,80.77
2019-01-17T04:07:56.335Z,82.78
2019-01-17T04:09:50.345Z,80.62
2019-01-17T04:11:44.295Z,79.79
2019-01-17T04:13:38.178Z,80.25
2019-01-17T04:15:32.655Z,79.26
2019-01-17T04:17:26.575Z,79.17
2019-01-17T04:19:20.577Z,80.26
2019-01-17T04:21:14.295Z,79.83
2019-01-17T04:23:08.134Z,82.10
2019-01-17T04:25:01.863Z,77.89
2019-01-17T04:26:55.615Z,77.88
2019-01-17T04:28:51.138Z,78.28
2019-01-17T04:30:45.414Z,79.16
2019-01-17T04:32:39.134Z,77.64
2019-01-17T04:34:33.256Z,77.67
2019-01-17T04:36:27.618Z,78.14
2019-01-17T04:38:21.376Z,78.24
2019-01-17T04:40:15.537Z,78.28
2019-01-17T04:42:09.461Z,78.50
2019-01-17T04:44:03.296Z,78.37
2019-01-17T04:45:57.016Z,78.31
2019-01-17T04:47:51.175Z,78.50
2019-01-17T04:49:45.098Z,78.49
2019-01-17T04:51:39.063Z,78.78
2019-01-17T04:53:33.294Z,78.91
2019-01-17T04:55:27.976Z,78.87
2019-01-17T04:57:22.061Z,78.62
2019-01-17T04:59:16.055Z,79.03
2019-01-17T05:01:10.014Z,78.76
2019-01-17T05:03:03.774Z,78.51
2019-01-17T05:04:58.542Z,78.79
2019-01-17T05:06:52.375Z,78.57
2019-01-17T05:08:46.175Z,78.78
2019-01-17T05:10:40.415Z,79.09
2019-01-17T05:12:34.175Z,79.64
2019-01-17T05:14:27.976Z,79.76
2019-01-17T05:16:21.735Z,80.10
2019-01-17T05:18:15.579Z,80.26
2019-01-17T05:20:12.616Z,80.48
2019-01-17T05:22:06.297Z,80.85
2019-01-17T05:24:00.223Z,81.03
2019-01-17T05:25:53.886Z,81.16
2019-01-17T05:27:47.566Z,81.30
2019-01-17T05:29:42.694Z,81.40
2019-01-17T05:31:36.623Z,81.80
2019-01-17T05:33:30.655Z,81.43
2019-01-17T05:35:24.335Z,81.34
2019-01-17T05:37:18.055Z,81.45
2019-01-17T05:39:16.367Z,81.75
2019-01-17T05:41:10.743Z,81.72
2019-01-17T05:43:04.255Z,81.51
2019-01-17T05:44:57.905Z,81.71
2019-01-17T05:46:51.895Z,81.59
2019-01-17T05:48:47.015Z,81.54
2019-01-17T05:50:41.215Z,81.67
2019-01-17T05:52:35.015Z,81.24
2019-01-17T05:54:30.815Z,80.95
2019-01-17T05:56:24.537Z,80.87
2019-01-17T05:58:18.335Z,80.98
2019-01-17T06:00:21.703Z,80.78
2019-01-17T06:02:15.304Z,80.43
2019-01-17T06:04:09.135Z,80.40
2019-01-17T06:06:03.136Z,79.78
2019-01-17T06:07:57.696Z,79.89
2019-01-17T06:09:52.559Z,79.98
2019-01-17T06:11:46.214Z,79.97
2019-01-17T06:13:40.254Z,79.71
2019-01-17T06:15:35.116Z,79.67
2019-01-17T06:17:28.937Z,79.75
2019-01-17T06:19:22.775Z,79.62
2019-01-17T06:21:16.662Z,79.51
2019-01-17T06:23:11.295Z,79.22
2019-01-17T06:25:05.903Z,79.29
2019-01-17T06:26:59.950Z,78.93
2019-01-17T06:28:53.597Z,78.96
2019-01-17T06:30:49.775Z,79.19
2019-01-17T06:32:43.762Z,78.95
2019-01-17T06:34:37.577Z,78.72
2019-01-17T06:36:31.296Z,78.59
2019-01-17T06:38:25.174Z,78.44
2019-01-17T06:40:31.939Z,78.57
2019-01-17T06:42:25.536Z,78.11
2019-01-17T06:44:20.413Z,77.97
2019-01-17T06:46:15.615Z,78.19
2019-01-17T06:48:09.535Z,78.39
2019-01-17T06:50:03.747Z,77.96
2019-01-17T06:51:57.535Z,78.07
2019-01-17T06:53:51.682Z,78.11
2019-01-17T06:55:45.414Z,78.12
2019-01-17T06:57:38.695Z,78.32
2019-01-17T06:59:33.135Z,77.94
2019-01-17T07:01:27.335Z,78.10
2019-01-17T07:03:21.135Z,77.74
2019-01-17T07:05:14.814Z,77.89
2019-01-17T07:07:08.630Z,77.71
2019-01-17T07:09:02.297Z,77.71
2019-01-17T07:10:57.277Z,77.40
2019-01-17T07:12:51.321Z,77.48
2019-01-17T07:14:44.840Z,77.40
2019-01-17T07:16:39.062Z,77.57
2019-01-17T07:18:32.846Z,77.37
2019-01-17T07:20:28.735Z,77.04
2019-01-17T07:22:23.176Z,77.03
2019-01-17T07:24:17.088Z,77.07
2019-01-17T07:26:11.075Z,76.74
2019-01-17T07:28:04.543Z,76.77
2019-01-17T07:29:58.682Z,76.67
2019-01-17T07:31:52.615Z,76.89
2019-01-17T07:33:46.135Z,76.53
2019-01-17T07:35:40.975Z,76.78
2019-01-17T07:37:34.917Z,76.72
2019-01-17T07:39:28.534Z,76.46
2019-01-17T07:41:22.521Z,76.46
2019-01-17T07:43:16.535Z,75.94
2019-01-17T07:45:15.023Z,76.05
2019-01-17T07:47:09.119Z,76.07
2019-01-17T07:49:03.342Z,75.80
2019-01-17T07:50:57.719Z,75.37
2019-01-17T07:52:52.382Z,75.70
2019-01-17T07:54:46.877Z,75.42
2019-01-17T07:56:40.685Z,75.51
2019-01-17T07:58:34.695Z,75.22
2019-01-17T08:00:28.154Z,75.07
2019-01-17T08:02:24.079Z,75.23
2019-01-17T08:04:17.495Z,75.03
2019-01-17T08:06:11.234Z,75.37
2019-01-17T08:08:05.438Z,75.54
2019-01-17T08:09:59.415Z,75.64
2019-01-17T08:11:53.226Z,75.95
2019-01-17T08:13:46.923Z,75.65
2019-01-17T08:15:40.871Z,75.86
2019-01-17T08:17:34.446Z,75.93
2019-01-17T08:19:28.606Z,76.08
2019-01-17T08:21:22.462Z,76.79
2019-01-17T08:23:16.340Z,77.56
2019-01-17T08:25:11.062Z,77.71
2019-01-17T08:27:04.775Z,77.59
2019-01-17T08:28:58.934Z,77.72
2019-01-17T08:30:52.610Z,77.82
2019-01-17T08:32:46.375Z,77.99
2019-01-17T08:34:40.238Z,78.04
2019-01-17T08:36:34.036Z,78.09
2019-01-17T08:38:28.015Z,78.23
2019-01-17T08:40:34.131Z,78.20
2019-01-17T08:42:28.015Z,78.37
2019-01-17T08:44:22.286Z,78.39
2019-01-17T08:46:16.176Z,78.57
2019-01-17T08:48:09.615Z,78.71
2019-01-17T08:50:03.694Z,79.13
2019-01-17T08:51:57.340Z,78.92
2019-01-17T08:53:51.721Z,79.36
2019-01-17T08:55:46.210Z,79.15
2019-01-17T08:57:40.136Z,79.18
2019-01-17T08:59:34.928Z,78.99
2019-01-17T09:01:28.795Z,79.05
2019-01-17T09:03:22.725Z,79.24
2019-01-17T09:05:16.602Z,79.29
2019-01-17T09:07:10.381Z,79.23
2019-01-17T09:09:06.777Z,79.33
2019-01-17T09:11:00.527Z,79.30
2019-01-17T09:12:54.575Z,79.39
2019-01-17T09:14:48.406Z,79.19
2019-01-17T09:16:42.256Z,79.12
2019-01-17T09:18:36.055Z,79.05
2019-01-17T09:20:29.895Z,79.16
2019-01-17T09:22:23.356Z,79.11
2019-01-17T09:24:17.186Z,78.76
2019-01-17T09:26:11.520Z,78.73
2019-01-17T09:28:05.454Z,78.65
2019-01-17T09:29:59.215Z,78.78
2019-01-17T09:31:52.863Z,78.51
2019-01-17T09:33:46.375Z,78.44
2019-01-17T09:35:40.114Z,78.58
2019-01-17T09:37:33.560Z,78.79
2019-01-17T09:41:31.580Z,78.32
2019-01-17T09:43:27.209Z,78.25
2019-01-17T09:45:20.357Z,78.25
2019-01-17T09:47:14.160Z,78.58
2019-01-17T09:49:07.461Z,78.19
2019-01-17T09:51:00.996Z,78.38
2019-01-17T09:52:54.900Z,78.51
2019-01-17T09:54:48.336Z,78.47
2019-01-17T09:56:41.985Z,78.46
2019-01-17T09:58:35.332Z,78.51
2019-01-17T10:00:32.646Z,78.28
2019-01-17T10:02:26.419Z,78.01
2019-01-17T10:04:19.821Z,78.14
2019-01-17T10:06:13.041Z,77.90
2019-01-17T10:08:06.382Z,77.81
2019-01-17T10:10:01.310Z,77.58
2019-01-17T10:11:55.100Z,77.29
2019-01-17T10:13:50.380Z,77.03
2019-01-17T10:15:54.139Z,76.88
2019-01-17T10:18:47.710Z,76.95
2019-01-17T10:21:52.491Z,76.75
2019-01-17T10:24:41.879Z,76.89
2019-01-17T10:27:48.485Z,77.17
2019-01-17T10:30:50.097Z,76.75
2019-01-17T10:33:24.134Z,76.72
2019-01-17T10:35:42.944Z,76.66
2019-01-17T10:38:39.007Z,76.60
2019-01-17T10:41:49.666Z,76.71
2019-01-17T10:44:17.543Z,76.37
2019-01-17T10:47:11.418Z,76.57
2019-01-17T10:50:07.284Z,76.53
2019-01-17T10:52:51.807Z,76.81
2019-01-17T10:55:27.467Z,76.99
2019-01-17T10:58:15.279Z,76.38
2019-01-17T11:00:52.272Z,76.57
2019-01-17T11:03:51.040Z,76.64
2019-01-17T11:06:38.850Z,76.41
2019-01-17T11:09:44.115Z,75.81
2019-01-17T11:12:22.157Z,75.30
2019-01-17T11:15:15.607Z,74.72
2019-01-17T11:18:17.369Z,75.13
2019-01-17T11:21:13.217Z,75.07
2019-01-17T11:24:06.746Z,75.33
2019-01-17T11:26:34.328Z,75.53
2019-01-17T11:29:12.938Z,75.69
2019-01-17T11:31:47.968Z,75.65
2019-01-17T11:34:47.947Z,75.25
2019-01-17T11:37:38.556Z,75.37
2019-01-17T11:40:18.057Z,75.56
2019-01-17T11:43:04.379Z,75.26
2019-01-17T11:45:28.840Z,75.37
2019-01-17T11:48:29.156Z,75.04
2019-01-17T11:51:07.625Z,75.00
2019-01-17T11:53:43.413Z,74.86
2019-01-17T11:56:33.459Z,74.64
2019-01-17T11:59:36.291Z,74.68
2019-01-17T12:01:56.280Z,74.78
2019-01-17T12:04:36.974Z,74.92
2019-01-17T12:06:30.377Z,74.73
2019-01-17T12:08:23.782Z,74.79
2019-01-17T12:10:17.103Z,75.02
2019-01-17T12:12:11.466Z,74.66
2019-01-17T12:14:04.674Z,74.75
2019-01-17T12:15:59.537Z,75.02
2019-01-17T12:17:52.839Z,75.39
2019-01-17T12:19:47.436Z,75.16
2019-01-17T12:21:41.142Z,75.35
2019-01-17T12:23:35.713Z,74.76
2019-01-17T12:25:29.173Z,74.48
2019-01-17T12:27:23.262Z,74.29
2019-01-17T12:29:16.789Z,74.03
2019-01-17T12:31:09.825Z,74.06
2019-01-17T12:33:04.832Z,73.99
2019-01-17T12:34:59.136Z,73.64
2019-01-17T12:36:52.590Z,73.49
2019-01-17T12:38:47.467Z,73.64
2019-01-17T12:40:40.746Z,73.94
2019-01-17T12:42:34.275Z,73.97
2019-01-17T12:44:27.747Z,74.21
2019-01-17T12:46:21.571Z,74.25
2019-01-17T12:48:14.867Z,74.72
2019-01-17T12:50:16.710Z,74.22
2019-01-17T12:52:10.212Z,74.35
2019-01-17T12:54:04.837Z,74.42
2019-01-17T12:55:59.748Z,74.62
2019-01-17T12:57:53.205Z,74.68
2019-01-17T12:59:47.612Z,74.64
2019-01-17T13:01:40.980Z,74.69
2019-01-17T13:03:34.434Z,74.08
2019-01-17T13:05:28.525Z,74.57
2019-01-17T13:07:21.746Z,74.07
2019-01-17T13:09:15.648Z,74.04
2019-01-17T13:11:09.275Z,74.05
2019-01-17T13:13:02.678Z,74.01
2019-01-17T13:14:57.434Z,74.25
2019-01-17T13:16:50.763Z,73.87
2019-01-17T13:18:44.077Z,74.45
2019-01-17T13:20:37.678Z,74.24
2019-01-17T13:22:31.101Z,74.36
2019-01-17T13:24:24.412Z,74.01
2019-01-17T13:26:18.017Z,74.13
2019-01-17T13:28:11.303Z,74.17
2019-01-17T13:30:08.871Z,73.99
2019-01-17T13:32:02.476Z,73.99
2019-01-17T13:33:55.791Z,74.02
2019-01-17T13:35:50.418Z,73.89
2019-01-17T13:37:45.128Z,74.19
2019-01-17T13:39:38.418Z,74.07
2019-01-17T13:41:33.641Z,74.39
2019-01-17T13:43:27.046Z,74.08
2019-01-17T13:45:22.321Z,73.62
2019-01-17T13:47:15.739Z,73.69
2019-01-17T13:49:09.273Z,73.88
2019-01-17T13:51:02.603Z,73.57
2019-01-17T13:52:56.073Z,73.57
2019-01-17T13:54:49.453Z,73.82
2019-01-17T13:56:43.203Z,73.69
2019-01-17T13:58:36.536Z,73.98
2019-01-17T14:00:30.208Z,73.94
2019-01-17T14:02:23.643Z,73.60
2019-01-17T14:04:16.886Z,74.00
2019-01-17T14:06:10.832Z,73.85
2019-01-17T14:08:04.478Z,73.98
2019-01-17T14:09:57.957Z,74.22
2019-01-17T14:11:51.413Z,74.34
2019-01-17T14:13:47.353Z,74.41
2019-01-17T14:15:42.252Z,74.65
2019-01-17T14:17:35.862Z,74.76
2019-01-17T14:19:29.191Z,74.81
2019-01-17T14:21:25.611Z,74.82
2019-01-17T14:23:18.852Z,74.45
2019-01-17T14:25:12.571Z,74.43
2019-01-17T14:27:06.150Z,74.34
2019-01-17T14:29:00.704Z,74.38
2019-01-17T14:30:54.813Z,74.25
2019-01-17T14:32:48.193Z,74.49
2019-01-17T14:34:42.551Z,74.61
2019-01-17T14:36:36.081Z,74.57
2019-01-17T14:38:29.835Z,74.49
2019-01-17T14:40:24.292Z,74.41
2019-01-17T14:42:17.874Z,74.36
2019-01-17T14:44:11.412Z,74.49
2019-01-17T14:46:04.722Z,74.13
2019-01-17T14:47:58.424Z,74.62
2019-01-17T14:49:51.613Z,74.48
2019-01-17T14:51:45.043Z,74.31
2019-01-17T14:53:43.200Z,74.53
2019-01-17T14:55:37.014Z,74.90
2019-01-17T14:57:30.314Z,75.10
2019-01-17T14:59:23.603Z,75.06
2019-01-17T15:01:17.451Z,75.49
2019-01-17T15:03:10.922Z,75.63
2019-01-17T15:05:04.479Z,76.13
2019-01-17T15:06:57.824Z,76.53
2019-01-17T15:08:51.032Z,76.88
2019-01-17T15:10:45.616Z,77.32
2019-01-17T15:12:40.574Z,77.38
2019-01-17T15:14:34.094Z,77.83
2019-01-17T15:16:27.649Z,77.81
2019-01-17T15:18:21.141Z,78.05
2019-01-17T15:20:18.204Z,77.70
2019-01-17T15:22:11.549Z,77.68
2019-01-17T15:24:06.915Z,77.68
2019-01-17T15:26:00.320Z,77.47
2019-01-17T15:27:53.742Z,77.42
2019-01-17T15:29:47.081Z,77.63
2019-01-17T15:31:40.514Z,77.95
2019-01-17T15:33:44.229Z,77.99
2019-01-17T15:35:37.554Z,78.19
2019-01-17T15:37:32.156Z,78.17
2019-01-17T15:39:27.099Z,78.25
2019-01-17T15:41:21.094Z,78.21
2019-01-17T15:43:15.344Z,78.16
2019-01-17T15:45:09.222Z,78.21
2019-01-17T15:47:03.175Z,78.24
2019-01-17T15:48:57.036Z,78.35
2019-01-17T15:50:50.414Z,78.25
2019-01-17T15:52:44.001Z,78.32
2019-01-17T15:54:37.644Z,78.24
2019-01-17T15:56:30.813Z,78.51
2019-01-17T15:58:24.294Z,78.48
2019-01-17T16:00:28.963Z,78.10
2019-01-17T16:02:22.257Z,78.21
2019-01-17T16:04:15.533Z,78.31
2019-01-17T16:06:09.202Z,78.31
2019-01-17T16:08:03.647Z,78.48
2019-01-17T16:09:57.138Z,78.55
2019-01-17T16:11:50.756Z,78.59
2019-01-17T16:13:44.641Z,78.51
2019-01-17T16:15:38.152Z,78.54
2019-01-17T16:17:32.938Z,78.32
2019-01-17T16:19:26.888Z,78.31
2019-01-17T16:21:20.598Z,78.27
2019-01-17T16:23:14.366Z,78.17
2019-01-17T16:25:10.267Z,78.02
2019-01-17T16:27:06.073Z,77.87
2019-01-17T16:29:01.357Z,77.86
2019-01-17T16:30:54.907Z,77.59
2019-01-17T16:32:48.195Z,77.53
2019-01-17T16:34:41.642Z,77.71
2019-01-17T16:36:35.487Z,78.02
2019-01-17T16:38:28.975Z,78.04
2019-01-17T16:40:26.027Z,78.09
2019-01-17T16:42:19.428Z,78.23
2019-01-17T16:44:13.939Z,78.32
2019-01-17T16:46:07.589Z,78.42
2019-01-17T16:48:00.744Z,78.45
2019-01-17T16:49:54.418Z,78.15
2019-01-17T16:51:47.736Z,78.09
2019-01-17T16:53:41.855Z,78.24
2019-01-17T16:55:35.429Z,78.08
2019-01-17T16:57:28.905Z,77.84
2019-01-17T16:59:22.211Z,77.90
2019-01-17T17:01:15.658Z,78.21
2019-01-17T17:03:09.085Z,78.62
2019-01-17T17:05:02.629Z,79.03
2019-01-17T17:06:56.585Z,79.33
2019-01-17T17:08:50.083Z,79.61
2019-01-17T17:10:43.483Z,79.82
2019-01-17T17:12:38.313Z,80.14
2019-01-17T17:14:32.092Z,80.49
2019-01-17T17:16:26.366Z,80.53
2019-01-17T17:18:20.790Z,80.58
2019-01-17T17:20:17.832Z,80.69
2019-01-17T17:22:11.292Z,80.73
2019-01-17T17:24:04.884Z,80.65
2019-01-17T17:25:58.600Z,80.65
2019-01-17T17:27:55.741Z,80.56
2019-01-17T17:29:47.806Z,80.69
2019-01-17T17:31:42.413Z,80.83
2019-01-17T17:33:35.693Z,80.90
2019-01-17T17:35:30.372Z,81.01
2019-01-17T17:37:23.813Z,81.17
2019-01-17T17:39:17.285Z,81.31
2019-01-17T17:41:10.750Z,81.50
2019-01-17T17:43:05.543Z,81.61
2019-01-17T17:44:58.870Z,81.85
2019-01-17T17:46:57.460Z,81.94
2019-01-17T17:48:51.122Z,82.00
2019-01-17T17:50:44.802Z,82.24
2019-01-17T17:52:38.192Z,82.27
2019-01-17T17:54:33.789Z,82.47
2019-01-17T17:56:27.630Z,82.39
2019-01-17T17:58:22.983Z,82.48
2019-01-17T18:00:45.682Z,82.46
2019-01-17T18:02:40.894Z,82.57
2019-01-17T18:04:34.512Z,82.61
2019-01-17T18:06:28.229Z,82.85
2019-01-17T18:08:21.799Z,82.87
2019-01-17T18:10:16.682Z,82.82
2019-01-17T18:12:10.364Z,82.70
2019-01-17T18:14:04.080Z,82.77
2019-01-17T18:15:57.973Z,82.74
2019-01-17T18:17:51.942Z,82.80
2019-01-17T18:19:45.483Z,82.91
2019-01-17T18:21:39.453Z,83.08
2019-01-17T18:23:34.242Z,83.17
2019-01-17T18:25:27.893Z,83.27
2019-01-17T18:27:23.053Z,83.34
2019-01-17T18:29:17.063Z,83.41
2019-01-17T18:31:10.519Z,83.49
2019-01-17T18:33:05.923Z,83.74
2019-01-17T18:34:59.813Z,83.89
2019-01-17T18:36:54.010Z,84.00
2019-01-17T18:38:49.453Z,84.20
2019-01-17T18:40:43.553Z,84.47
2019-01-17T18:42:37.473Z,84.42
2019-01-17T18:44:31.685Z,84.55
2019-01-17T18:46:25.926Z,84.69
2019-01-17T18:48:20.299Z,84.72
2019-01-17T18:50:21.604Z,84.90
2019-01-17T18:52:16.003Z,84.92
2019-01-17T18:54:10.284Z,85.03
2019-01-17T18:56:04.460Z,84.98
2019-01-17T18:57:58.651Z,85.17
2019-01-17T18:59:52.853Z,85.45
2019-01-17T19:01:47.134Z,85.48
2019-01-17T19:03:42.580Z,85.34
2019-01-17T19:05:36.805Z,85.46
2019-01-17T19:07:30.905Z,85.69
2019-01-17T19:09:25.270Z,85.82
2019-01-17T19:11:19.514Z,85.95
2019-01-17T19:13:14.015Z,86.03
2019-01-17T19:15:09.974Z,86.21
2019-01-17T19:17:06.768Z,86.33
2019-01-17T19:19:02.480Z,86.43
2019-01-17T19:20:58.432Z,86.58
2019-01-17T19:22:52.782Z,86.72
2019-01-17T19:24:47.400Z,86.94
2019-01-17T19:26:42.264Z,87.04
2019-01-17T19:28:36.164Z,86.74
2019-01-17T19:30:31.955Z,86.49
2019-01-17T19:32:26.253Z,86.33
2019-01-17T19:34:20.312Z,86.16
2019-01-17T19:36:14.614Z,86.01
2019-01-17T19:38:08.713Z,86.10
2019-01-17T19:40:02.883Z,85.68
2019-01-17T19:41:57.564Z,85.62
2019-01-17T19:43:52.013Z,85.59
2019-01-17T19:45:46.296Z,85.33
2019-01-17T19:47:41.045Z,85.28
2019-01-17T19:49:35.310Z,85.30
2019-01-17T19:51:29.703Z,85.23
2019-01-17T19:53:23.733Z,85.27
2019-01-17T19:55:18.064Z,85.37
2019-01-17T19:57:12.200Z,85.59
2019-01-17T19:59:06.496Z,85.64
2019-01-17T20:01:00.946Z,85.77
2019-01-17T20:02:55.958Z,85.94
2019-01-17T20:04:50.727Z,86.06
2019-01-17T20:06:45.064Z,86.10
2019-01-17T20:08:39.249Z,86.21
2019-01-17T20:10:36.194Z,86.36
2019-01-17T20:12:30.227Z,86.66
2019-01-17T20:14:24.678Z,86.61
2019-01-17T20:16:19.216Z,86.78
2019-01-17T20:18:13.255Z,86.85
2019-01-17T20:20:08.834Z,86.94
2019-01-17T20:22:03.269Z,87.16
2019-01-17T20:23:57.588Z,87.17
2019-01-17T20:25:52.071Z,87.37
2019-01-17T20:27:47.038Z,87.31
2019-01-17T20:29:42.095Z,87.28
2019-01-17T20:31:37.680Z,87.34
2019-01-17T20:33:31.800Z,87.39
2019-01-17T20:35:26.092Z,87.45
2019-01-17T20:37:20.268Z,87.77
2019-01-17T20:39:14.898Z,87.89
2019-01-17T20:41:09.449Z,88.24
2019-01-17T20:43:03.551Z,88.45
2019-01-17T20:44:57.612Z,88.57
2019-01-17T20:46:51.792Z,88.73
2019-01-17T20:48:46.011Z,88.92
2019-01-17T20:50:40.441Z,89.22
2019-01-17T20:52:34.810Z,89.40
2019-01-17T20:54:30.208Z,89.35
2019-01-17T20:56:24.364Z,89.27
2019-01-17T20:58:19.412Z,89.38
2019-01-17T21:00:26.182Z,89.43
2019-01-17T21:02:22.504Z,89.43
2019-01-17T21:04:19.059Z,89.62
2019-01-17T21:06:13.775Z,89.73
2019-01-17T21:08:07.587Z,89.78
2019-01-17T21:10:02.540Z,89.91
2019-01-17T21:11:56.742Z,90.07
2019-01-17T21:13:52.085Z,90.24
2019-01-17T21:15:46.658Z,90.28
2019-01-17T21:17:40.794Z,90.24
2019-01-17T21:19:35.018Z,90.34
2019-01-17T21:21:28.935Z,90.27
2019-01-17T21:23:24.434Z,90.10
2019-01-17T21:25:19.842Z,89.93
2019-01-17T21:27:13.152Z,89.62
2019-01-17T21:29:06.545Z,89.42
2019-01-17T21:30:59.971Z,89.24
2019-01-17T21:32:53.583Z,89.14
2019-01-17T21:34:47.295Z,88.86
2019-01-17T21:36:40.817Z,88.71
2019-01-17T21:38:34.636Z,88.63
2019-01-17T21:40:28.396Z,88.30
2019-01-17T21:42:21.595Z,88.20
2019-01-17T21:44:15.676Z,88.15
2019-01-17T21:46:08.875Z,88.09
2019-01-17T21:48:02.437Z,87.87
2019-01-17T21:49:55.909Z,87.80
2019-01-17T21:51:49.216Z,87.72
2019-01-17T21:53:43.454Z,87.91
2019-01-17T21:55:37.049Z,88.06
2019-01-17T21:57:30.665Z,88.20
2019-01-17T21:59:25.357Z,88.38
2019-01-17T22:01:18.798Z,88.61
2019-01-17T22:03:12.397Z,88.75
2019-01-17T22:05:06.461Z,88.83
2019-01-17T22:07:01.932Z,88.72
2019-01-17T22:08:56.401Z,88.62
2019-01-17T22:10:49.712Z,88.48
2019-01-17T22:12:43.629Z,88.33
2019-01-17T22:14:37.869Z,88.16
2019-01-17T22:16:31.994Z,88.03
2019-01-17T22:18:26.434Z,88.05
2019-01-17T22:20:20.373Z,87.90
2019-01-17T22:22:14.535Z,87.68
2019-01-17T22:24:08.235Z,87.79
2019-01-17T22:26:03.146Z,87.78
2019-01-17T22:27:57.687Z,87.70
2019-01-17T22:29:51.071Z,87.67
2019-01-17T22:31:44.329Z,87.52
2019-01-17T22:33:37.750Z,87.18
2019-01-17T22:35:31.281Z,87.24
2019-01-17T22:37:25.033Z,87.15
2019-01-17T22:39:18.303Z,86.52
2019-01-17T22:41:11.990Z,86.62
2019-01-17T22:43:05.379Z,86.47
2019-01-17T22:44:58.791Z,86.45
2019-01-17T22:46:52.311Z,86.31
2019-01-17T22:48:46.206Z,86.11
2019-01-17T22:50:40.195Z,86.14
2019-01-17T22:52:33.764Z,86.06
2019-01-17T22:54:27.090Z,85.86
2019-01-17T22:56:20.349Z,85.82
2019-01-17T22:58:14.748Z,85.72
2019-01-17T23:00:54.487Z,85.67
2019-01-17T23:02:47.893Z,85.48
2019-01-17T23:04:41.052Z,85.38
2019-01-17T23:06:34.495Z,85.34
2019-01-17T23:08:28.099Z,85.08
2019-01-17T23:10:22.417Z,84.92
2019-01-17T23:12:15.855Z,84.94
2019-01-17T23:14:09.450Z,84.72
2019-01-17T23:16:02.865Z,84.44
2019-01-17T23:17:57.076Z,84.15
2019-01-17T23:19:50.448Z,84.05
2019-01-17T23:21:45.061Z,84.14
2019-01-17T23:23:38.648Z,83.93
2019-01-17T23:25:31.932Z,83.84
2019-01-17T23:27:25.254Z,83.76
2019-01-17T23:29:18.493Z,83.62
2019-01-17T23:31:13.155Z,83.68
2019-01-17T23:33:06.536Z,83.56
2019-01-17T23:34:59.910Z,83.43
2019-01-17T23:36:53.083Z,83.39
2019-01-17T23:38:46.390Z,83.37
2019-01-17T23:40:39.570Z,83.42
2019-01-17T23:42:33.060Z,83.30
2019-01-17T23:44:26.426Z,83.38
2019-01-17T23:46:19.836Z,83.55
2019-01-17T23:48:13.263Z,83.63
2019-01-17T23:50:06.824Z,83.43
2019-01-17T23:52:00.873Z,83.42
2019-01-17T23:53:55.376Z,83.48
2019-01-17T23:55:48.836Z,83.45
2019-01-17T23:57:42.686Z,83.71
2019-01-17T23:59:35.923Z,83.07
